sensor_id;sensor_type;location;lat;lon;timestamp;pressure;altitude;pressure_sealevel;temperature;humidity
62708;BME280;48769;51.624;5.886;2024-03-08T00:01:52;101602.88;;;3.93;100.00
62708;BME280;48769;51.624;5.886;2024-03-08T00:04:18;101609.00;;;3.89;100.00
62708;BME280;48769;51.624;5.886;2024-03-08T00:06:43;101603.75;;;3.89;100.00
62708;BME280;48769;51.624;5.886;2024-03-08T00:09:11;101593.31;;;3.89;100.00
62708;BME280;48769;51.624;5.886;2024-03-08T00:11:37;101597.69;;;3.89;100.00
62708;BME280;48769;51.624;5.886;2024-03-08T00:14:02;101589.91;;;3.84;100.00
62708;BME280;48769;51.624;5.886;2024-03-08T00:16:27;101596.91;;;3.79;100.00
62708;BME280;48769;51.624;5.886;2024-03-08T00:18:52;101591.72;;;3.76;100.00
62708;BME280;48769;51.624;5.886;2024-03-08T00:21:18;101593.50;;;3.74;100.00
62708;BME280;48769;51.624;5.886;2024-03-08T00:23:43;101594.38;;;3.73;100.00
62708;BME280;48769;51.624;5.886;2024-03-08T00:26:09;101584.78;;;3.75;100.00
62708;BME280;48769;51.624;5.886;2024-03-08T00:28:34;101596.09;;;3.75;100.00
62708;BME280;48769;51.624;5.886;2024-03-08T00:31:00;101582.22;;;3.69;100.00
62708;BME280;48769;51.624;5.886;2024-03-08T00:33:26;101584.88;;;3.66;100.00
62708;BME280;48769;51.624;5.886;2024-03-08T00:35:53;101584.88;;;3.66;100.00
62708;BME280;48769;51.624;5.886;2024-03-08T00:38:18;101576.19;;;3.64;100.00
62708;BME280;48769;51.624;5.886;2024-03-08T00:40:44;101579.72;;;3.60;100.00
62708;BME280;48769;51.624;5.886;2024-03-08T00:43:09;101577.97;;;3.62;100.00
62708;BME280;48769;51.624;5.886;2024-03-08T00:45:34;101560.59;;;3.58;100.00
62708;BME280;48769;51.624;5.886;2024-03-08T00:48:00;101570.16;;;3.57;100.00
62708;BME280;48769;51.624;5.886;2024-03-08T00:50:25;101564.09;;;3.54;100.00
62708;BME280;48769;51.624;5.886;2024-03-08T00:52:51;101558.97;;;3.44;100.00
62708;BME280;48769;51.624;5.886;2024-03-08T00:55:16;101567.66;;;3.46;100.00
62708;BME280;48769;51.624;5.886;2024-03-08T00:57:42;101555.50;;;3.45;100.00
62708;BME280;48769;51.624;5.886;2024-03-08T01:00:07;101545.09;;;3.41;100.00
62708;BME280;48769;51.624;5.886;2024-03-08T01:02:36;101554.69;;;3.39;100.00
62708;BME280;48769;51.624;5.886;2024-03-08T01:05:02;101546.88;;;3.37;100.00
62708;BME280;48769;51.624;5.886;2024-03-08T01:07:29;101546.03;;;3.34;100.00
62708;BME280;48769;51.624;5.886;2024-03-08T01:09:54;101542.53;;;3.35;100.00
62708;BME280;48769;51.624;5.886;2024-03-08T01:12:19;101538.28;;;3.26;100.00
62708;BME280;48769;51.624;5.886;2024-03-08T01:14:45;101531.28;;;3.28;100.00
62708;BME280;48769;51.624;5.886;2024-03-08T01:17:10;101527.84;;;3.26;100.00
62708;BME280;48769;51.624;5.886;2024-03-08T01:19:37;101522.69;;;3.20;100.00
62708;BME280;48769;51.624;5.886;2024-03-08T01:22:02;101522.75;;;3.14;100.00
62708;BME280;48769;51.624;5.886;2024-03-08T01:24:28;101519.22;;;3.18;100.00
62708;BME280;48769;51.624;5.886;2024-03-08T01:26:54;101515.78;;;3.16;100.00
62708;BME280;48769;51.624;5.886;2024-03-08T01:29:19;101515.78;;;3.16;100.00
62708;BME280;48769;51.624;5.886;2024-03-08T01:31:44;101518.41;;;3.11;100.00
62708;BME280;48769;51.624;5.886;2024-03-08T01:34:10;101514.94;;;3.11;100.00
62708;BME280;48769;51.624;5.886;2024-03-08T01:36:35;101512.41;;;3.03;100.00
62708;BME280;48769;51.624;5.886;2024-03-08T01:39:02;101503.81;;;2.93;100.00
62708;BME280;48769;51.624;5.886;2024-03-08T01:41:31;101509.03;;;2.93;100.00
62708;BME280;48769;51.624;5.886;2024-03-08T01:43:57;101505.53;;;2.94;100.00
62708;BME280;48769;51.624;5.886;2024-03-08T01:46:22;101503.78;;;2.96;100.00
62708;BME280;48769;51.624;5.886;2024-03-08T01:48:48;101503.78;;;2.96;100.00
62708;BME280;48769;51.624;5.886;2024-03-08T01:51:15;101507.25;;;2.95;100.00
62708;BME280;48769;51.624;5.886;2024-03-08T01:53:42;101507.25;;;2.95;100.00
62708;BME280;48769;51.624;5.886;2024-03-08T01:56:11;101505.59;;;2.88;100.00
62708;BME280;48769;51.624;5.886;2024-03-08T01:58:38;101506.47;;;2.86;100.00
62708;BME280;48769;51.624;5.886;2024-03-08T02:01:04;101505.59;;;2.85;100.00
62708;BME280;48769;51.624;5.886;2024-03-08T02:03:30;101498.66;;;2.84;100.00
62708;BME280;48769;51.624;5.886;2024-03-08T02:05:57;101489.91;;;2.88;100.00
62708;BME280;48769;51.624;5.886;2024-03-08T02:08:24;101496.97;;;2.80;100.00
62708;BME280;48769;51.624;5.886;2024-03-08T02:10:50;101482.19;;;2.76;100.00
62708;BME280;48769;51.624;5.886;2024-03-08T02:13:16;101483.97;;;2.77;100.00
62708;BME280;48769;51.624;5.886;2024-03-08T02:16:00;101481.41;;;2.69;100.00
62708;BME280;48769;51.624;5.886;2024-03-08T02:18:26;101473.56;;;2.71;100.00
62708;BME280;48769;51.624;5.886;2024-03-08T02:20:53;101477.94;;;2.69;100.00
62708;BME280;48769;51.624;5.886;2024-03-08T02:23:19;101476.19;;;2.68;100.00
62708;BME280;48769;51.624;5.886;2024-03-08T02:25:45;101467.53;;;2.63;100.00
62708;BME280;48769;51.624;5.886;2024-03-08T02:28:11;101473.69;;;2.60;100.00
62708;BME280;48769;51.624;5.886;2024-03-08T02:30:37;101467.56;;;2.61;100.00
62708;BME280;48769;51.624;5.886;2024-03-08T02:33:02;101461.50;;;2.59;100.00
62708;BME280;48769;51.624;5.886;2024-03-08T02:35:27;101462.41;;;2.55;100.00
62708;BME280;48769;51.624;5.886;2024-03-08T02:37:53;101460.72;;;2.51;100.00
62708;BME280;48769;51.624;5.886;2024-03-08T02:40:18;101452.03;;;2.50;100.00
62708;BME280;48769;51.624;5.886;2024-03-08T02:42:43;101459.84;;;2.50;100.00
62708;BME280;48769;51.624;5.886;2024-03-08T02:45:09;101456.34;;;2.51;100.00
62708;BME280;48769;51.624;5.886;2024-03-08T02:47:37;101451.16;;;2.48;100.00
62708;BME280;48769;51.624;5.886;2024-03-08T02:50:02;101449.47;;;2.43;100.00
62708;BME280;48769;51.624;5.886;2024-03-08T02:52:28;101448.59;;;2.42;100.00
62708;BME280;48769;51.624;5.886;2024-03-08T02:54:54;101446.84;;;2.43;100.00
62708;BME280;48769;51.624;5.886;2024-03-08T02:57:19;101439.94;;;2.39;100.00
62708;BME280;48769;51.624;5.886;2024-03-08T02:59:44;101441.72;;;2.35;100.00
62708;BME280;48769;51.624;5.886;2024-03-08T03:02:12;101436.50;;;2.30;100.00
62708;BME280;48769;51.624;5.886;2024-03-08T03:04:40;101437.44;;;2.28;100.00
62708;BME280;48769;51.624;5.886;2024-03-08T03:07:05;101427.88;;;2.24;100.00
62708;BME280;48769;51.624;5.886;2024-03-08T03:09:31;101427.91;;;2.22;100.00
62708;BME280;48769;51.624;5.886;2024-03-08T03:11:58;101427.88;;;2.24;100.00
62708;BME280;48769;51.624;5.886;2024-03-08T03:14:23;101427.03;;;2.25;100.00
62708;BME280;48769;51.624;5.886;2024-03-08T03:16:49;101414.88;;;2.22;100.00
62708;BME280;48769;51.624;5.886;2024-03-08T03:19:15;101423.59;;;2.17;100.00
62708;BME280;48769;51.624;5.886;2024-03-08T03:21:40;101415.78;;;2.18;100.00
62708;BME280;48769;51.624;5.886;2024-03-08T03:24:08;101417.47;;;2.21;100.00
62708;BME280;48769;51.624;5.886;2024-03-08T03:26:36;101419.25;;;2.19;100.00
62708;BME280;48769;51.624;5.886;2024-03-08T03:29:04;101414.03;;;2.19;100.00
62708;BME280;48769;51.624;5.886;2024-03-08T03:31:31;101415.78;;;2.18;100.00
62708;BME280;48769;51.624;5.886;2024-03-08T03:33:56;101416.66;;;2.14;100.00
62708;BME280;48769;51.624;5.886;2024-03-08T03:36:27;101417.56;;;2.15;100.00
62708;BME280;48769;51.624;5.886;2024-03-08T03:38:53;101411.47;;;2.13;100.00
62708;BME280;48769;51.624;5.886;2024-03-08T03:41:29;101410.59;;;2.10;100.00
62708;BME280;48769;51.624;5.886;2024-03-08T03:43:55;101410.63;;;2.07;100.00
62708;BME280;48769;51.624;5.886;2024-03-08T03:46:20;101407.19;;;2.05;100.00
62708;BME280;48769;51.624;5.886;2024-03-08T03:48:45;101399.38;;;2.02;100.00
62708;BME280;48769;51.624;5.886;2024-03-08T03:51:11;101399.38;;;2.04;100.00
62708;BME280;48769;51.624;5.886;2024-03-08T03:53:37;101393.31;;;2.00;100.00
62708;BME280;48769;51.624;5.886;2024-03-08T03:56:02;101397.69;;;1.97;100.00
62708;BME280;48769;51.624;5.886;2024-03-08T03:58:32;101397.69;;;1.98;100.00
62708;BME280;48769;51.624;5.886;2024-03-08T04:00:57;101395.09;;;1.95;100.00
62708;BME280;48769;51.624;5.886;2024-03-08T04:03:23;101395.97;;;1.96;100.00
62708;BME280;48769;51.624;5.886;2024-03-08T04:05:48;101395.09;;;1.95;100.00
62708;BME280;48769;51.624;5.886;2024-03-08T04:08:14;101389.06;;;1.90;100.00
62708;BME280;48769;51.624;5.886;2024-03-08T04:10:40;101384.72;;;1.89;100.00
62708;BME280;48769;51.624;5.886;2024-03-08T04:13:07;101384.75;;;1.83;100.00
62708;BME280;48769;51.624;5.886;2024-03-08T04:15:32;101379.56;;;1.83;100.00
62708;BME280;48769;51.624;5.886;2024-03-08T04:17:58;101379.56;;;1.83;100.00
62708;BME280;48769;51.624;5.886;2024-03-08T04:20:25;101379.56;;;1.83;100.00
62708;BME280;48769;51.624;5.886;2024-03-08T04:22:51;101382.19;;;1.80;100.00
62708;BME280;48769;51.624;5.886;2024-03-08T04:25:16;101372.66;;;1.79;100.00
62708;BME280;48769;51.624;5.886;2024-03-08T04:27:41;101371.75;;;1.78;100.00
62708;BME280;48769;51.624;5.886;2024-03-08T04:30:07;101372.66;;;1.76;100.00
62708;BME280;48769;51.624;5.886;2024-03-08T04:32:33;101372.66;;;1.76;100.00
62708;BME280;48769;51.624;5.886;2024-03-08T04:34:59;101370.94;;;1.73;100.00
62708;BME280;48769;51.624;5.886;2024-03-08T04:37:26;101370.06;;;1.73;100.00
62708;BME280;48769;51.624;5.886;2024-03-08T04:39:51;101368.34;;;1.69;100.00
62708;BME280;48769;51.624;5.886;2024-03-08T04:42:17;101369.22;;;1.71;100.00
62708;BME280;48769;51.624;5.886;2024-03-08T04:44:43;101374.41;;;1.71;100.00
62708;BME280;48769;51.624;5.886;2024-03-08T04:47:08;101372.69;;;1.70;100.00
62708;BME280;48769;51.624;5.886;2024-03-08T04:49:35;101365.75;;;1.69;100.00
62708;BME280;48769;51.624;5.886;2024-03-08T04:52:04;101365.75;;;1.66;100.00
62708;BME280;48769;51.624;5.886;2024-03-08T04:54:32;101365.78;;;1.62;100.00
62708;BME280;48769;51.624;5.886;2024-03-08T04:56:58;101358.00;;;1.61;100.00
62708;BME280;48769;51.624;5.886;2024-03-08T04:59:25;101353.63;;;1.61;100.00
62708;BME280;48769;51.624;5.886;2024-03-08T05:01:50;101348.44;;;1.61;100.00
62708;BME280;48769;51.624;5.886;2024-03-08T05:04:16;101348.47;;;1.55;100.00
62708;BME280;48769;51.624;5.886;2024-03-08T05:06:41;101341.56;;;1.51;100.00
62708;BME280;48769;51.624;5.886;2024-03-08T05:09:07;101345.03;;;1.50;100.00
62708;BME280;48769;51.624;5.886;2024-03-08T05:11:45;101339.84;;;1.50;100.00
62708;BME280;48769;51.624;5.886;2024-03-08T05:14:11;101339.84;;;1.47;100.00
62708;BME280;48769;51.624;5.886;2024-03-08T05:16:42;101338.97;;;1.48;100.00
62708;BME280;48769;51.624;5.886;2024-03-08T05:19:07;101345.06;;;1.47;100.00
62708;BME280;48769;51.624;5.886;2024-03-08T05:21:32;101334.66;;;1.47;100.00
62708;BME280;48769;51.624;5.886;2024-03-08T05:23:58;101335.50;;;1.48;100.00
62708;BME280;48769;51.624;5.886;2024-03-08T05:26:23;101336.38;;;1.45;100.00
62708;BME280;48769;51.624;5.886;2024-03-08T05:28:48;101336.38;;;1.45;100.00
62708;BME280;48769;51.624;5.886;2024-03-08T05:31:23;101341.59;;;1.42;100.00
62708;BME280;48769;51.624;5.886;2024-03-08T05:33:49;101335.56;;;1.43;100.00
62708;BME280;48769;51.624;5.886;2024-03-08T05:36:14;101333.78;;;1.42;100.00
62708;BME280;48769;51.624;5.886;2024-03-08T05:38:42;101336.41;;;1.42;100.00
62708;BME280;48769;51.624;5.886;2024-03-08T05:41:08;101329.50;;;1.38;100.00
62708;BME280;48769;51.624;5.886;2024-03-08T05:43:34;101324.25;;;1.39;100.00
62708;BME280;48769;51.624;5.886;2024-03-08T05:45:59;101333.81;;;1.39;100.00
62708;BME280;48769;51.624;5.886;2024-03-08T05:48:24;101326.00;;;1.39;100.00
62708;BME280;48769;51.624;5.886;2024-03-08T05:50:50;101329.47;;;1.41;100.00
62708;BME280;48769;51.624;5.886;2024-03-08T05:53:15;101322.56;;;1.37;100.00
62708;BME280;48769;51.624;5.886;2024-03-08T05:55:41;101326.03;;;1.33;100.00
62708;BME280;48769;51.624;5.886;2024-03-08T05:58:06;101314.78;;;1.34;100.00
62708;BME280;48769;51.624;5.886;2024-03-08T06:00:33;101317.38;;;1.34;100.00
62708;BME280;48769;51.624;5.886;2024-03-08T06:02:59;101315.63;;;1.30;100.00
62708;BME280;48769;51.624;5.886;2024-03-08T06:05:25;101317.41;;;1.31;100.00
62708;BME280;48769;51.624;5.886;2024-03-08T06:07:50;101315.63;;;1.33;100.00
62708;BME280;48769;51.624;5.886;2024-03-08T06:10:18;101312.19;;;1.31;100.00
62708;BME280;48769;51.624;5.886;2024-03-08T06:12:44;101313.00;;;1.36;100.00
62708;BME280;48769;51.624;5.886;2024-03-08T06:15:10;101309.53;;;1.35;100.00
62708;BME280;48769;51.624;5.886;2024-03-08T06:17:39;101306.97;;;1.32;100.00
62708;BME280;48769;51.624;5.886;2024-03-08T06:20:05;101309.53;;;1.38;100.00
62708;BME280;48769;51.624;5.886;2024-03-08T06:22:41;101310.41;;;1.36;100.00
62708;BME280;48769;51.624;5.886;2024-03-08T06:25:08;101302.59;;;1.37;100.00
62708;BME280;48769;51.624;5.886;2024-03-08T06:27:33;101297.38;;;1.39;100.00
62708;BME280;48769;51.624;5.886;2024-03-08T06:30:02;101309.50;;;1.42;100.00
62708;BME280;48769;51.624;5.886;2024-03-08T06:32:30;101302.59;;;1.40;100.00
62708;BME280;48769;51.624;5.886;2024-03-08T06:34:55;101309.53;;;1.40;100.00
62708;BME280;48769;51.624;5.886;2024-03-08T06:37:20;101298.22;;;1.44;100.00
62708;BME280;48769;51.624;5.886;2024-03-08T06:39:47;101298.16;;;1.49;100.00
62708;BME280;48769;51.624;5.886;2024-03-08T06:42:13;101296.41;;;1.52;100.00
62708;BME280;48769;51.624;5.886;2024-03-08T06:44:38;101292.13;;;1.47;100.00
62708;BME280;48769;51.624;5.886;2024-03-08T06:47:10;101290.38;;;1.50;100.00
62708;BME280;48769;51.624;5.886;2024-03-08T06:49:36;101287.72;;;1.56;100.00
62708;BME280;48769;51.624;5.886;2024-03-08T06:52:01;101291.16;;;1.58;100.00
62708;BME280;48769;51.624;5.886;2024-03-08T06:54:26;101291.16;;;1.58;100.00
62708;BME280;48769;51.624;5.886;2024-03-08T06:56:52;101286.78;;;1.62;100.00
62708;BME280;48769;51.624;5.886;2024-03-08T06:59:17;101283.28;;;1.68;100.00
62708;BME280;48769;51.624;5.886;2024-03-08T07:01:43;101287.59;;;1.69;100.00
62708;BME280;48769;51.624;5.886;2024-03-08T07:04:08;101289.28;;;1.79;100.00
62708;BME280;48769;51.624;5.886;2024-03-08T07:06:33;101290.06;;;1.87;100.00
62708;BME280;48769;51.624;5.886;2024-03-08T07:08:59;101283.09;;;1.91;100.00
62708;BME280;48769;51.624;5.886;2024-03-08T07:11:24;101281.28;;;1.99;100.00
62708;BME280;48769;51.624;5.886;2024-03-08T07:13:49;101286.38;;;2.11;100.00
62708;BME280;48769;51.624;5.886;2024-03-08T07:16:15;101285.41;;;2.23;100.00
62708;BME280;48769;51.624;5.886;2024-03-08T07:18:41;101274.63;;;2.53;100.00
62708;BME280;48769;51.624;5.886;2024-03-08T07:21:11;101280.97;;;3.02;100.00
62708;BME280;48769;51.624;5.886;2024-03-08T07:23:36;101281.31;;;3.41;100.00
62708;BME280;48769;51.624;5.886;2024-03-08T07:26:15;101267.16;;;3.56;100.00
62708;BME280;48769;51.624;5.886;2024-03-08T07:28:40;101259.91;;;3.73;100.00
62708;BME280;48769;51.624;5.886;2024-03-08T07:31:06;101255.28;;;4.37;100.00
62708;BME280;48769;51.624;5.886;2024-03-08T07:33:51;101251.88;;;4.32;100.00
62708;BME280;48769;51.624;5.886;2024-03-08T07:36:18;101259.53;;;4.42;100.00
62708;BME280;48769;51.624;5.886;2024-03-08T07:38:44;101259.50;;;4.45;100.00
62708;BME280;48769;51.624;5.886;2024-03-08T07:41:12;101254.44;;;4.36;100.00
62708;BME280;48769;51.624;5.886;2024-03-08T07:43:38;101252.66;;;4.37;100.00
62708;BME280;48769;51.624;5.886;2024-03-08T07:46:03;101246.75;;;5.11;100.00
62708;BME280;48769;51.624;5.886;2024-03-08T07:48:29;101238.56;;;5.98;100.00
62708;BME280;48769;51.624;5.886;2024-03-08T07:50:56;101227.19;;;6.91;93.55
62708;BME280;48769;51.624;5.886;2024-03-08T07:53:21;101223.97;;;7.39;90.10
62708;BME280;48769;51.624;5.886;2024-03-08T07:55:47;101208.56;;;7.80;84.09
62708;BME280;48769;51.624;5.886;2024-03-08T07:58:12;101194.78;;;8.72;81.70
62708;BME280;48769;51.624;5.886;2024-03-08T08:00:38;101196.19;;;9.02;76.50
62708;BME280;48769;51.624;5.886;2024-03-08T08:03:04;101186.72;;;9.63;73.54
62708;BME280;48769;51.624;5.886;2024-03-08T08:05:30;101188.47;;;10.23;71.70
62708;BME280;48769;51.624;5.886;2024-03-08T08:08:00;101188.34;;;10.85;68.68
62708;BME280;48769;51.624;5.886;2024-03-08T08:10:28;101172.06;;;11.82;63.80
62708;BME280;48769;51.624;5.886;2024-03-08T08:12:53;101164.13;;;12.17;61.87
62708;BME280;48769;51.624;5.886;2024-03-08T08:15:19;101167.94;;;12.11;59.74
62708;BME280;48769;51.624;5.886;2024-03-08T08:17:45;101161.66;;;11.97;58.73
62708;BME280;48769;51.624;5.886;2024-03-08T08:20:11;101170.41;;;12.48;59.21
62708;BME280;48769;51.624;5.886;2024-03-08T08:22:39;101162.31;;;13.14;57.56
62708;BME280;48769;51.624;5.886;2024-03-08T08:25:05;101150.06;;;13.57;55.11
62708;BME280;48769;51.624;5.886;2024-03-08T08:27:31;101148.31;;;13.87;54.37
62708;BME280;48769;51.624;5.886;2024-03-08T08:29:56;101138.88;;;14.25;52.11
62708;BME280;48769;51.624;5.886;2024-03-08T08:32:22;101139.84;;;14.53;50.53
62708;BME280;48769;51.624;5.886;2024-03-08T08:34:47;101139.59;;;14.70;51.12
62708;BME280;48769;51.624;5.886;2024-03-08T08:37:13;101135.22;;;14.84;50.50
62708;BME280;48769;51.624;5.886;2024-03-08T08:39:38;101134.16;;;15.40;49.56
62708;BME280;48769;51.624;5.886;2024-03-08T08:42:04;101129.84;;;15.78;47.19
62708;BME280;48769;51.624;5.886;2024-03-08T08:44:29;101127.63;;;15.97;47.51
62708;BME280;48769;51.624;5.886;2024-03-08T08:46:56;101126.13;;;16.19;45.82
62708;BME280;48769;51.624;5.886;2024-03-08T08:49:22;101131.00;;;16.87;46.71
62708;BME280;48769;51.624;5.886;2024-03-08T08:51:52;101122.19;;;17.22;43.74
62708;BME280;48769;51.624;5.886;2024-03-08T08:54:17;101112.88;;;16.30;43.66
62708;BME280;48769;51.624;5.886;2024-03-08T08:56:43;101122.50;;;16.20;44.13
62708;BME280;48769;51.624;5.886;2024-03-08T08:59:09;101121.66;;;16.06;44.31
62708;BME280;48769;51.624;5.886;2024-03-08T09:01:34;101117.16;;;16.32;43.66
62708;BME280;48769;51.624;5.886;2024-03-08T09:04:00;101112.03;;;16.29;44.12
62708;BME280;48769;51.624;5.886;2024-03-08T09:06:25;101111.56;;;16.48;44.07
62708;BME280;48769;51.624;5.886;2024-03-08T09:08:51;101097.09;;;16.27;42.70
62708;BME280;48769;51.624;5.886;2024-03-08T09:11:16;101104.28;;;16.50;43.11
62708;BME280;48769;51.624;5.886;2024-03-08T09:13:44;101094.56;;;16.75;42.34
62708;BME280;48769;51.624;5.886;2024-03-08T09:16:10;101106.53;;;16.44;43.57
62708;BME280;48769;51.624;5.886;2024-03-08T09:18:36;101097.31;;;16.24;43.12
62708;BME280;48769;51.624;5.886;2024-03-08T09:21:01;101083.72;;;15.90;43.08
62708;BME280;48769;51.624;5.886;2024-03-08T09:23:26;101087.13;;;15.67;43.69
62708;BME280;48769;51.624;5.886;2024-03-08T09:25:56;101095.75;;;14.63;45.99
62708;BME280;48769;51.624;5.886;2024-03-08T09:28:22;101088.13;;;14.71;47.54
62708;BME280;48769;51.624;5.886;2024-03-08T09:30:48;101084.66;;;14.84;46.84
62708;BME280;48769;51.624;5.886;2024-03-08T09:33:14;101089.50;;;13.64;48.61
62708;BME280;48769;51.624;5.886;2024-03-08T09:35:44;101081.53;;;13.50;50.88
62708;BME280;48769;51.624;5.886;2024-03-08T09:38:12;101080.25;;;14.14;49.94
62708;BME280;48769;51.624;5.886;2024-03-08T09:40:38;101077.47;;;13.73;49.34
62708;BME280;48769;51.624;5.886;2024-03-08T09:43:04;101067.94;;;13.10;50.84
62708;BME280;48769;51.624;5.886;2024-03-08T09:45:31;101070.19;;;13.02;51.95
62708;BME280;48769;51.624;5.886;2024-03-08T09:48:01;101065.69;;;13.18;52.26
62708;BME280;48769;51.624;5.886;2024-03-08T09:50:26;101065.47;;;13.07;53.50
62708;BME280;48769;51.624;5.886;2024-03-08T09:52:55;101056.91;;;12.72;53.54
62708;BME280;48769;51.624;5.886;2024-03-08T09:55:22;101050.81;;;13.60;52.93
62708;BME280;48769;51.624;5.886;2024-03-08T09:57:48;101029.09;;;14.11;49.39
62708;BME280;48769;51.624;5.886;2024-03-08T10:00:34;101034.31;;;13.41;51.80
62708;BME280;48769;51.624;5.886;2024-03-08T10:03:02;101025.44;;;12.66;53.96
62708;BME280;48769;51.624;5.886;2024-03-08T10:05:29;101030.91;;;12.62;54.72
62708;BME280;48769;51.624;5.886;2024-03-08T10:07:55;101029.06;;;12.49;54.97
62708;BME280;48769;51.624;5.886;2024-03-08T10:10:20;101013.22;;;12.93;54.33
62708;BME280;48769;51.624;5.886;2024-03-08T10:12:48;101006.25;;;12.76;54.46
62708;BME280;48769;51.624;5.886;2024-03-08T10:15:15;101006.16;;;13.38;54.65
62708;BME280;48769;51.624;5.886;2024-03-08T10:17:42;100993.69;;;14.10;52.30
62708;BME280;48769;51.624;5.886;2024-03-08T10:20:17;100987.13;;;14.97;49.80
62708;BME280;48769;51.624;5.886;2024-03-08T10:22:43;100984.78;;;14.80;49.43
62708;BME280;48769;51.624;5.886;2024-03-08T10:25:12;100984.94;;;14.64;50.71
62708;BME280;48769;51.624;5.886;2024-03-08T10:27:39;100978.53;;;14.39;50.40
62708;BME280;48769;51.624;5.886;2024-03-08T10:30:08;100979.44;;;14.25;50.35
62708;BME280;48769;51.624;5.886;2024-03-08T10:32:35;100977.03;;;14.62;49.62
62708;BME280;48769;51.624;5.886;2024-03-08T10:35:00;100960.53;;;14.97;47.47
62708;BME280;48769;51.624;5.886;2024-03-08T10:37:27;100954.47;;;14.95;48.53
62708;BME280;48769;51.624;5.886;2024-03-08T10:40:03;100947.31;;;14.70;48.22
62708;BME280;48769;51.624;5.886;2024-03-08T10:42:39;100963.22;;;14.57;49.94
62708;BME280;48769;51.624;5.886;2024-03-08T10:45:15;100953.69;;;13.99;50.47
62708;BME280;48769;51.624;5.886;2024-03-08T10:47:45;100943.69;;;13.61;51.99
62708;BME280;48769;51.624;5.886;2024-03-08T10:50:20;100959.06;;;13.56;52.51
62708;BME280;48769;51.624;5.886;2024-03-08T10:52:49;100951.28;;;13.53;54.19
62708;BME280;48769;51.624;5.886;2024-03-08T10:55:15;100943.78;;;13.74;53.84
62708;BME280;48769;51.624;5.886;2024-03-08T10:57:42;100940.47;;;13.85;51.75
62708;BME280;48769;51.624;5.886;2024-03-08T11:00:09;100937.56;;;14.02;52.20
62708;BME280;48769;51.624;5.886;2024-03-08T11:02:36;100929.72;;;14.55;49.38
62708;BME280;48769;51.624;5.886;2024-03-08T11:05:04;100922.47;;;14.30;49.12
62708;BME280;48769;51.624;5.886;2024-03-08T11:07:34;100923.38;;;14.43;50.11
62708;BME280;48769;51.624;5.886;2024-03-08T11:10:03;100925.69;;;14.62;47.02
62708;BME280;48769;51.624;5.886;2024-03-08T11:12:38;100914.34;;;14.98;46.95
62708;BME280;48769;51.624;5.886;2024-03-08T11:15:11;100906.91;;;15.29;47.19
62708;BME280;48769;51.624;5.886;2024-03-08T11:20:10;100896.91;;;15.82;44.99
62708;BME280;48769;51.624;5.886;2024-03-08T11:22:41;100889.19;;;15.53;44.90
62708;BME280;48769;51.624;5.886;2024-03-08T11:25:09;100889.31;;;15.39;46.80
62708;BME280;48769;51.624;5.886;2024-03-08T11:27:38;100881.53;;;15.49;46.11
62708;BME280;48769;51.624;5.886;2024-03-08T11:30:05;100879.44;;;15.28;46.80
62708;BME280;48769;51.624;5.886;2024-03-08T11:32:37;100863.28;;;14.67;46.80
62708;BME280;48769;51.624;5.886;2024-03-08T11:35:07;100872.53;;;14.35;47.59
62708;BME280;48769;51.624;5.886;2024-03-08T11:37:34;100868.22;;;14.19;48.61
62708;BME280;48769;51.624;5.886;2024-03-08T11:40:00;100871.16;;;14.02;49.25
62708;BME280;48769;51.624;5.886;2024-03-08T11:42:29;100867.41;;;13.92;49.65
62708;BME280;48769;51.624;5.886;2024-03-08T11:44:55;100866.25;;;13.96;50.25
62708;BME280;48769;51.624;5.886;2024-03-08T11:47:21;100873.91;;;14.27;50.88
62708;BME280;48769;51.624;5.886;2024-03-08T11:49:47;100874.91;;;14.12;48.60
62708;BME280;48769;51.624;5.886;2024-03-08T11:52:15;100856.22;;;13.87;49.49
62708;BME280;48769;51.624;5.886;2024-03-08T11:54:41;100852.50;;;14.16;49.68
62708;BME280;48769;51.624;5.886;2024-03-08T11:57:06;100846.44;;;14.54;48.90
62708;BME280;48769;51.624;5.886;2024-03-08T11:59:32;100850.69;;;15.20;47.27
62708;BME280;48769;51.624;5.886;2024-03-08T12:02:04;100842.56;;;14.85;45.61
62708;BME280;48769;51.624;5.886;2024-03-08T12:04:30;100834.78;;;14.30;47.75
62708;BME280;48769;51.624;5.886;2024-03-08T12:06:59;100838.53;;;14.40;48.59
62708;BME280;48769;51.624;5.886;2024-03-08T12:09:26;100827.22;;;14.76;47.69
62708;BME280;48769;51.624;5.886;2024-03-08T12:11:52;100830.97;;;15.36;46.89
62708;BME280;48769;51.624;5.886;2024-03-08T12:14:19;100813.94;;;15.38;44.86
62708;BME280;48769;51.624;5.886;2024-03-08T12:16:46;100818.06;;;15.42;44.57
62708;BME280;48769;51.624;5.886;2024-03-08T12:19:13;100809.19;;;15.68;46.04
62708;BME280;48769;51.624;5.886;2024-03-08T12:21:39;100812.84;;;16.02;44.78
62708;BME280;48769;51.624;5.886;2024-03-08T12:24:11;100799.38;;;16.27;44.73
62708;BME280;48769;51.624;5.886;2024-03-08T12:26:41;100790.41;;;16.86;43.26
62708;BME280;48769;51.624;5.886;2024-03-08T12:29:17;100784.09;;;16.76;43.94
62708;BME280;48769;51.624;5.886;2024-03-08T12:31:51;100783.53;;;16.37;43.34
62708;BME280;48769;51.624;5.886;2024-03-08T12:34:17;100780.41;;;16.43;42.16
62708;BME280;48769;51.624;5.886;2024-03-08T12:36:48;100771.50;;;16.78;41.91
62708;BME280;48769;51.624;5.886;2024-03-08T12:39:20;100776.78;;;17.45;41.46
62708;BME280;48769;51.624;5.886;2024-03-08T12:41:48;100774.13;;;17.34;42.35
62708;BME280;48769;51.624;5.886;2024-03-08T12:44:14;100767.72;;;17.69;41.99
62708;BME280;48769;51.624;5.886;2024-03-08T12:46:40;100761.34;;;18.13;40.06
62708;BME280;48769;51.624;5.886;2024-03-08T12:49:08;100756.19;;;18.42;39.77
62708;BME280;48769;51.624;5.886;2024-03-08T12:51:35;100753.72;;;19.02;37.08